createdAt,value
2023-01-05T00:04:59.787Z,100308.97
2023-01-05T00:10:01.265Z,100311.47
2023-01-05T00:15:21.441Z,100301.31
2023-01-05T00:20:43.272Z,100327.56
2023-01-05T00:25:44.795Z,100311.25
2023-01-05T00:30:47.314Z,100311.31
2023-01-05T00:35:48.854Z,100313.13
2023-01-05T00:40:50.357Z,100323.44
2023-01-05T00:45:51.907Z,100326.00
2023-01-05T00:50:53.403Z,100326.84
2023-01-05T00:56:00.975Z,100333.75
2023-01-05T01:01:09.186Z,100352.66
2023-01-05T01:06:10.730Z,100358.75
2023-01-05T01:11:12.935Z,100364.84
2023-01-05T01:16:15.879Z,100385.56
2023-01-05T01:21:17.728Z,100368.19
2023-01-05T01:26:19.757Z,100373.31
2023-01-05T01:31:21.282Z,100365.72
2023-01-05T01:36:22.915Z,100371.66
2023-01-05T01:41:24.370Z,100382.97
2023-01-05T01:46:27.333Z,100370.69
2023-01-05T01:51:31.956Z,100383.84
2023-01-05T01:56:38.209Z,100384.81
2023-01-05T02:01:40.869Z,100377.16
2023-01-05T02:06:42.469Z,100376.38
2023-01-05T02:12:03.857Z,100386.66
2023-01-05T02:17:08.187Z,100383.13
2023-01-05T02:22:18.900Z,100384.88
2023-01-05T02:27:37.630Z,100394.38
2023-01-05T02:33:14.734Z,100378.84
2023-01-05T02:38:42.476Z,100379.72
2023-01-05T02:43:45.450Z,100375.50
2023-01-05T02:48:51.825Z,100385.13
2023-01-05T02:54:05.455Z,100382.75
2023-01-05T02:59:20.099Z,100382.50
2023-01-05T03:04:27.971Z,100390.34
2023-01-05T03:09:36.701Z,100383.41
2023-01-05T03:14:42.511Z,100409.38
2023-01-05T03:19:46.137Z,100399.78
2023-01-05T03:25:06.765Z,100411.03
2023-01-05T03:30:28.042Z,100404.09
2023-01-05T03:35:35.018Z,100425.66
2023-01-05T03:40:39.266Z,100426.50
2023-01-05T03:45:44.328Z,100432.41
2023-01-05T03:50:45.979Z,100443.81
2023-01-05T03:55:47.517Z,100438.75
2023-01-05T04:00:49.046Z,100439.69
2023-01-05T04:05:50.544Z,100429.22
2023-01-05T04:10:56.008Z,100448.25
2023-01-05T04:15:57.483Z,100446.47
2023-01-05T04:20:59.021Z,100445.50
2023-01-05T04:26:01.000Z,100455.94
2023-01-05T04:31:02.916Z,100466.28
2023-01-05T04:36:04.724Z,100472.44
2023-01-05T04:41:06.317Z,100480.19
2023-01-05T04:46:08.404Z,100488.03
2023-01-05T04:51:09.942Z,100497.47
2023-01-05T04:56:11.516Z,100498.38
2023-01-05T05:01:13.132Z,100497.38
2023-01-05T05:06:16.787Z,100520.81
2023-01-05T05:11:18.313Z,100522.38
2023-01-05T05:16:19.881Z,100512.84
2023-01-05T05:21:21.516Z,100538.13
2023-01-05T05:26:23.034Z,100509.69
2023-01-05T05:31:24.675Z,100512.25
2023-01-05T05:36:26.151Z,100510.72
2023-01-05T05:41:27.650Z,100499.41
2023-01-05T05:46:29.892Z,100506.28
2023-01-05T05:51:32.844Z,100518.56
2023-01-05T05:56:34.472Z,100525.34
2023-01-05T06:01:35.984Z,100534.81
2023-01-05T06:06:37.617Z,100554.00
2023-01-05T06:11:39.059Z,100562.53
2023-01-05T06:16:40.728Z,100569.50
2023-01-05T06:21:42.274Z,100595.44
2023-01-05T06:26:43.934Z,100613.63
2023-01-05T06:31:45.500Z,100625.91
2023-01-05T06:36:47.078Z,100637.25
2023-01-05T06:41:48.529Z,100672.84
2023-01-05T06:46:50.055Z,100697.53
2023-01-05T06:51:51.523Z,100709.84
2023-01-05T06:56:53.024Z,100741.16
2023-01-05T07:01:54.693Z,100753.41
2023-01-05T07:06:56.406Z,100783.81
2023-01-05T07:11:57.826Z,100792.91
2023-01-05T07:16:59.550Z,100800.84
2023-01-05T07:22:01.067Z,100794.31
2023-01-05T07:27:07.740Z,100829.06
2023-01-05T07:32:10.828Z,100864.66
2023-01-05T07:37:12.434Z,100876.81
2023-01-05T07:42:14.170Z,100878.56
2023-01-05T07:47:19.022Z,100900.16
2023-01-05T07:52:20.470Z,100908.78
2023-01-05T07:57:21.880Z,100928.66
2023-01-05T08:02:23.373Z,100929.50
2023-01-05T08:07:24.950Z,100944.19
2023-01-05T08:12:28.815Z,100955.41
2023-01-05T08:17:30.282Z,100978.66
2023-01-05T08:22:31.736Z,100983.84
2023-01-05T08:27:34.882Z,100995.03
2023-01-05T08:32:36.306Z,101005.38
2023-01-05T08:37:37.803Z,101028.66
2023-01-05T08:42:40.699Z,101043.31
2023-01-05T08:47:42.238Z,101051.06
2023-01-05T08:52:43.674Z,101061.44
2023-01-05T08:57:45.174Z,101077.81
2023-01-05T09:02:46.852Z,101092.47
2023-01-05T09:07:48.409Z,101099.41
2023-01-05T09:12:49.931Z,101110.53
2023-01-05T09:17:51.454Z,101119.97
2023-01-05T09:22:52.982Z,101135.47
2023-01-05T09:27:54.444Z,101145.00
2023-01-05T09:32:55.931Z,101155.31
2023-01-05T09:37:57.444Z,101164.81
2023-01-05T09:42:58.968Z,101165.59
2023-01-05T09:48:01.129Z,101185.44
2023-01-05T09:53:02.653Z,101198.44
2023-01-05T09:58:26.242Z,101207.97
2023-01-05T10:04:02.351Z,101215.75
2023-01-05T10:08:55.093Z,101219.16
2023-01-05T10:14:05.029Z,101226.13
2023-01-05T10:19:13.194Z,101226.97
2023-01-05T10:24:32.692Z,101256.34
2023-01-05T10:29:44.902Z,101264.97
2023-01-05T10:34:46.339Z,101268.44
2023-01-05T10:40:32.025Z,101266.72
2023-01-05T10:45:34.675Z,101284.00
2023-01-05T10:50:42.129Z,101280.53
2023-01-05T10:56:06.400Z,101290.91
2023-01-05T11:01:27.752Z,101306.47
2023-01-05T11:06:32.540Z,101309.94
2023-01-05T11:11:34.597Z,101322.03
2023-01-05T11:16:38.253Z,101315.13
2023-01-05T11:21:44.218Z,101333.25
2023-01-05T11:26:53.417Z,101332.41
2023-01-05T11:32:07.116Z,101343.59
2023-01-05T11:37:11.635Z,101353.09
2023-01-05T11:42:25.300Z,101350.53
2023-01-05T11:47:37.772Z,101370.41
2023-01-05T11:52:50.026Z,101389.44
2023-01-05T11:57:59.825Z,101382.50
2023-01-05T12:03:22.787Z,101396.38
2023-01-05T12:08:27.887Z,101398.03
2023-01-05T12:14:09.021Z,101380.66
2023-01-05T12:19:18.657Z,101390.13
2023-01-05T12:24:51.230Z,101383.16
2023-01-05T12:36:00.423Z,101404.78
2023-01-05T12:41:36.042Z,101388.19
2023-01-05T12:46:59.324Z,101379.03
2023-01-05T12:52:17.436Z,101383.97
2023-01-05T12:57:29.402Z,101382.94
2023-01-05T13:02:44.970Z,101393.03
2023-01-05T13:07:46.456Z,101404.88
2023-01-05T13:12:54.285Z,101396.53
2023-01-05T13:17:58.968Z,101410.88
2023-01-05T13:23:16.354Z,101433.03
2023-01-05T13:28:20.517Z,101423.09
2023-01-05T13:33:55.364Z,101428.56
2023-01-05T13:39:29.398Z,101435.31
2023-01-05T13:45:04.173Z,101453.25
2023-01-05T13:50:21.925Z,101462.50
2023-01-05T13:55:26.698Z,101468.47
2023-01-05T14:00:36.953Z,101479.00
2023-01-05T14:05:50.900Z,101492.59
2023-01-05T14:11:10.372Z,101502.84
2023-01-05T14:16:34.049Z,101504.88
2023-01-05T14:21:51.157Z,101513.91
2023-01-05T14:27:09.301Z,101527.47
2023-01-05T14:32:29.770Z,101538.09
2023-01-05T14:37:51.823Z,101549.44
2023-01-05T14:42:54.202Z,101554.63
2023-01-05T14:48:02.851Z,101570.13
2023-01-05T14:53:10.118Z,101578.72
2023-01-05T14:58:14.508Z,101605.44
2023-01-05T15:03:40.870Z,101609.72
2023-01-05T15:09:00.912Z,101608.81
2023-01-05T15:14:34.833Z,101610.41
2023-01-05T15:20:01.348Z,101618.88
2023-01-05T15:25:49.254Z,101622.16
2023-01-05T15:31:33.382Z,101618.56
2023-01-05T15:36:51.805Z,101625.38
2023-01-05T15:41:56.504Z,101632.84
2023-01-05T15:46:58.050Z,101626.78
2023-01-05T15:52:00.411Z,101627.78
2023-01-05T15:57:02.570Z,101616.69
2023-01-05T16:02:22.785Z,101625.44
2023-01-05T16:07:24.259Z,101631.59
2023-01-05T16:12:26.489Z,101629.00
2023-01-05T16:17:31.947Z,101628.13
2023-01-05T16:22:36.231Z,101642.81
2023-01-05T16:27:43.466Z,101626.38
2023-01-05T16:32:56.151Z,101625.47
2023-01-05T16:38:09.862Z,101630.66
2023-01-05T16:43:29.283Z,101633.16
2023-01-05T16:48:40.125Z,101640.97
2023-01-05T16:53:52.028Z,101649.63
2023-01-05T16:58:53.564Z,101659.97
2023-01-05T17:03:55.156Z,101658.28
2023-01-05T17:08:59.954Z,101645.38
2023-01-05T17:14:02.891Z,101659.19
2023-01-05T17:19:16.449Z,101652.31
2023-01-05T17:24:17.883Z,101659.19
2023-01-05T17:29:22.710Z,101660.06
2023-01-05T17:34:24.528Z,101662.69
2023-01-05T17:39:26.484Z,101660.16
2023-01-05T17:44:30.882Z,101661.06
2023-01-05T17:49:32.898Z,101668.88
2023-01-05T17:54:34.418Z,101658.50
2023-01-05T17:59:35.894Z,101662.00
2023-01-05T18:04:37.428Z,101668.03
2023-01-05T18:09:39.002Z,101670.63
2023-01-05T18:14:40.549Z,101667.19
2023-01-05T18:24:49.557Z,101667.19
2023-01-05T18:29:51.450Z,101668.03
2023-01-05T18:34:52.957Z,101670.63
2023-01-05T18:39:54.455Z,101655.06
2023-01-05T18:44:56.006Z,101655.00
2023-01-05T18:49:58.979Z,101665.22
2023-01-05T18:55:01.357Z,101663.50
2023-01-05T19:00:04.766Z,101667.81
2023-01-05T19:05:06.458Z,101662.66
2023-01-05T19:10:08.327Z,101666.97
2023-01-05T19:15:10.361Z,101667.66
2023-01-05T19:20:11.949Z,101665.75
2023-01-05T19:25:14.803Z,101659.56
2023-01-05T19:30:17.773Z,101658.53
2023-01-05T19:35:19.428Z,101654.03
2023-01-05T19:40:21.001Z,101662.56
2023-01-05T19:45:22.487Z,101654.66
2023-01-05T19:50:23.980Z,101660.66
2023-01-05T19:55:25.401Z,101657.22
2023-01-05T20:00:26.967Z,101649.47
2023-01-05T20:05:28.390Z,101655.56
2023-01-05T20:10:29.982Z,101650.44
2023-01-05T20:15:33.881Z,101641.88
2023-01-05T20:20:35.464Z,101646.19
2023-01-05T20:25:37.758Z,101648.81
2023-01-05T20:30:39.190Z,101665.28
2023-01-05T20:35:41.080Z,101660.22
2023-01-05T20:40:42.562Z,101662.03
2023-01-05T20:45:44.108Z,101652.69
2023-01-05T20:50:46.294Z,101650.94
2023-01-05T20:55:51.699Z,101649.28
2023-01-05T21:01:10.735Z,101650.97
2023-01-05T21:06:15.744Z,101660.56
2023-01-05T21:11:19.407Z,101654.56
2023-01-05T21:16:34.883Z,101649.41
2023-01-05T21:21:37.450Z,101635.66
2023-01-05T21:26:39.135Z,101643.47
2023-01-05T21:31:40.818Z,101641.75
2023-01-05T21:36:45.275Z,101634.81
2023-01-05T21:42:07.173Z,101640.03
2023-01-05T21:47:08.721Z,101628.78
2023-01-05T21:52:29.125Z,101621.91
2023-01-05T21:57:30.560Z,101613.28
2023-01-05T22:02:32.086Z,101610.75
2023-01-05T22:07:33.539Z,101611.56
2023-01-05T22:12:34.974Z,101604.72
2023-01-05T22:17:36.428Z,101612.50
2023-01-05T22:22:37.891Z,101606.47
2023-01-05T22:27:39.358Z,101597.81
2023-01-05T22:32:40.879Z,101588.41
2023-01-05T22:37:42.338Z,101573.72
2023-01-05T22:42:43.774Z,101585.88
2023-01-05T22:47:45.317Z,101575.53
2023-01-05T22:52:46.790Z,101574.75
2023-01-05T22:57:48.259Z,101567.03
2023-01-05T23:02:50.169Z,101555.75
2023-01-05T23:07:52.150Z,101554.97
2023-01-05T23:12:53.833Z,101530.78
2023-01-05T23:17:55.273Z,101520.41
2023-01-05T23:23:15.022Z,101537.72
2023-01-05T23:28:18.062Z,101515.28
2023-01-05T23:33:21.764Z,101515.34
2023-01-05T23:38:24.932Z,101511.00
2023-01-05T23:43:28.191Z,101509.31
2023-01-05T23:48:30.271Z,101497.25
2023-01-05T23:53:31.783Z,101489.50
2023-01-05T23:58:33.297Z,101477.41
